sensor_id;sensor_type;location;lat;lon;timestamp;P1;durP1;ratioP1;P2;durP2;ratioP2
27219;SDS011;45274;52.266;10.790;2023-08-21T00:01:20;7.32;;;3.33;;
27219;SDS011;45274;52.266;10.790;2023-08-21T00:03:46;5.38;;;3.60;;
27219;SDS011;45274;52.266;10.790;2023-08-21T00:06:11;8.93;;;4.22;;
27219;SDS011;45274;52.266;10.790;2023-08-21T00:08:39;7.05;;;3.65;;
27219;SDS011;45274;52.266;10.790;2023-08-21T00:11:07;8.60;;;3.67;;
27219;SDS011;45274;52.266;10.790;2023-08-21T00:13:33;6.22;;;3.65;;
27219;SDS011;45274;52.266;10.790;2023-08-21T00:15:59;5.47;;;3.47;;
27219;SDS011;45274;52.266;10.790;2023-08-21T00:18:24;6.90;;;3.42;;
27219;SDS011;45274;52.266;10.790;2023-08-21T00:20:50;9.68;;;3.88;;
27219;SDS011;45274;52.266;10.790;2023-08-21T00:23:16;5.82;;;3.58;;
27219;SDS011;45274;52.266;10.790;2023-08-21T00:25:47;6.85;;;3.90;;
27219;SDS011;45274;52.266;10.790;2023-08-21T00:28:13;7.22;;;3.15;;
27219;SDS011;45274;52.266;10.790;2023-08-21T00:30:39;7.78;;;3.90;;
27219;SDS011;45274;52.266;10.790;2023-08-21T00:33:04;7.55;;;3.58;;
27219;SDS011;45274;52.266;10.790;2023-08-21T00:35:30;5.57;;;3.55;;
27219;SDS011;45274;52.266;10.790;2023-08-21T00:37:55;9.38;;;3.33;;
27219;SDS011;45274;52.266;10.790;2023-08-21T00:40:24;5.10;;;3.88;;
27219;SDS011;45274;52.266;10.790;2023-08-21T00:42:49;6.15;;;3.30;;
27219;SDS011;45274;52.266;10.790;2023-08-21T00:45:15;5.72;;;3.50;;
27219;SDS011;45274;52.266;10.790;2023-08-21T00:47:41;8.10;;;3.70;;
27219;SDS011;45274;52.266;10.790;2023-08-21T00:50:08;7.03;;;3.58;;
27219;SDS011;45274;52.266;10.790;2023-08-21T00:52:34;7.00;;;3.63;;
27219;SDS011;45274;52.266;10.790;2023-08-21T00:55:00;10.13;;;3.60;;
27219;SDS011;45274;52.266;10.790;2023-08-21T00:57:26;9.48;;;3.65;;
27219;SDS011;45274;52.266;10.790;2023-08-21T00:59:52;7.57;;;3.90;;
27219;SDS011;45274;52.266;10.790;2023-08-21T01:02:18;8.15;;;3.50;;
27219;SDS011;45274;52.266;10.790;2023-08-21T01:04:44;6.45;;;3.83;;
27219;SDS011;45274;52.266;10.790;2023-08-21T01:07:09;7.60;;;3.40;;
27219;SDS011;45274;52.266;10.790;2023-08-21T01:12:09;9.57;;;3.58;;
27219;SDS011;45274;52.266;10.790;2023-08-21T01:17:28;7.47;;;3.35;;
27219;SDS011;45274;52.266;10.790;2023-08-21T01:19:55;7.78;;;2.90;;
27219;SDS011;45274;52.266;10.790;2023-08-21T01:22:25;5.32;;;3.00;;
27219;SDS011;45274;52.266;10.790;2023-08-21T01:24:52;6.15;;;3.75;;
27219;SDS011;45274;52.266;10.790;2023-08-21T01:27:17;6.97;;;3.45;;
27219;SDS011;45274;52.266;10.790;2023-08-21T01:29:46;5.72;;;3.22;;
27219;SDS011;45274;52.266;10.790;2023-08-21T01:34:57;7.00;;;2.90;;
27219;SDS011;45274;52.266;10.790;2023-08-21T01:37:24;5.57;;;3.15;;
27219;SDS011;45274;52.266;10.790;2023-08-21T01:39:51;5.07;;;2.90;;
27219;SDS011;45274;52.266;10.790;2023-08-21T01:42:16;7.47;;;3.10;;
27219;SDS011;45274;52.266;10.790;2023-08-21T01:44:41;8.23;;;3.20;;
27219;SDS011;45274;52.266;10.790;2023-08-21T01:47:13;6.30;;;3.00;;
27219;SDS011;45274;52.266;10.790;2023-08-21T01:49:38;9.15;;;3.50;;
27219;SDS011;45274;52.266;10.790;2023-08-21T01:52:04;3.60;;;2.90;;
27219;SDS011;45274;52.266;10.790;2023-08-21T01:54:29;8.15;;;3.15;;
27219;SDS011;45274;52.266;10.790;2023-08-21T01:56:55;7.70;;;2.78;;
27219;SDS011;45274;52.266;10.790;2023-08-21T01:59:21;6.22;;;2.83;;
27219;SDS011;45274;52.266;10.790;2023-08-21T02:01:46;5.35;;;3.00;;
27219;SDS011;45274;52.266;10.790;2023-08-21T02:04:12;9.27;;;3.00;;
27219;SDS011;45274;52.266;10.790;2023-08-21T02:06:37;7.70;;;3.28;;
27219;SDS011;45274;52.266;10.790;2023-08-21T02:09:03;7.82;;;3.13;;
27219;SDS011;45274;52.266;10.790;2023-08-21T02:11:28;10.07;;;3.58;;
27219;SDS011;45274;52.266;10.790;2023-08-21T02:13:54;7.10;;;2.95;;
27219;SDS011;45274;52.266;10.790;2023-08-21T02:16:19;8.07;;;3.20;;
27219;SDS011;45274;52.266;10.790;2023-08-21T02:18:46;6.55;;;3.20;;
27219;SDS011;45274;52.266;10.790;2023-08-21T02:21:12;8.18;;;3.10;;
27219;SDS011;45274;52.266;10.790;2023-08-21T02:23:38;4.53;;;2.83;;
27219;SDS011;45274;52.266;10.790;2023-08-21T02:26:03;7.05;;;2.63;;
27219;SDS011;45274;52.266;10.790;2023-08-21T02:28:28;7.63;;;2.78;;
27219;SDS011;45274;52.266;10.790;2023-08-21T02:30:57;4.65;;;2.75;;
27219;SDS011;45274;52.266;10.790;2023-08-21T02:33:22;5.72;;;2.72;;
27219;SDS011;45274;52.266;10.790;2023-08-21T02:35:48;4.57;;;2.60;;
27219;SDS011;45274;52.266;10.790;2023-08-21T02:38:13;7.18;;;2.95;;
27219;SDS011;45274;52.266;10.790;2023-08-21T02:40:38;6.55;;;2.85;;
27219;SDS011;45274;52.266;10.790;2023-08-21T02:43:04;10.13;;;2.90;;
27219;SDS011;45274;52.266;10.790;2023-08-21T02:45:30;4.40;;;2.50;;
27219;SDS011;45274;52.266;10.790;2023-08-21T02:47:56;10.45;;;2.83;;
27219;SDS011;45274;52.266;10.790;2023-08-21T02:50:21;5.95;;;2.45;;
27219;SDS011;45274;52.266;10.790;2023-08-21T02:52:47;4.88;;;2.13;;
27219;SDS011;45274;52.266;10.790;2023-08-21T02:55:12;8.23;;;2.20;;
27219;SDS011;45274;52.266;10.790;2023-08-21T02:57:39;4.22;;;2.35;;
27219;SDS011;45274;52.266;10.790;2023-08-21T03:00:04;4.28;;;2.50;;
27219;SDS011;45274;52.266;10.790;2023-08-21T03:02:32;3.75;;;3.10;;
27219;SDS011;45274;52.266;10.790;2023-08-21T03:04:57;5.55;;;3.13;;
27219;SDS011;45274;52.266;10.790;2023-08-21T03:07:23;6.10;;;2.60;;
27219;SDS011;45274;52.266;10.790;2023-08-21T03:09:48;5.22;;;2.80;;
27219;SDS011;45274;52.266;10.790;2023-08-21T03:12:14;7.97;;;2.30;;
27219;SDS011;45274;52.266;10.790;2023-08-21T03:14:39;5.53;;;2.10;;
27219;SDS011;45274;52.266;10.790;2023-08-21T03:17:05;5.53;;;2.20;;
27219;SDS011;45274;52.266;10.790;2023-08-21T03:19:30;4.22;;;2.55;;
27219;SDS011;45274;52.266;10.790;2023-08-21T03:21:56;4.97;;;2.40;;
27219;SDS011;45274;52.266;10.790;2023-08-21T03:24:21;5.15;;;2.38;;
27219;SDS011;45274;52.266;10.790;2023-08-21T03:26:46;6.13;;;2.50;;
27219;SDS011;45274;52.266;10.790;2023-08-21T03:29:12;8.50;;;2.20;;
27219;SDS011;45274;52.266;10.790;2023-08-21T03:31:37;3.70;;;2.13;;
27219;SDS011;45274;52.266;10.790;2023-08-21T03:34:03;4.50;;;2.40;;
27219;SDS011;45274;52.266;10.790;2023-08-21T03:36:28;7.90;;;2.67;;
27219;SDS011;45274;52.266;10.790;2023-08-21T03:39:00;8.82;;;2.33;;
27219;SDS011;45274;52.266;10.790;2023-08-21T03:41:27;8.18;;;2.10;;
27219;SDS011;45274;52.266;10.790;2023-08-21T03:43:53;5.25;;;1.90;;
27219;SDS011;45274;52.266;10.790;2023-08-21T03:46:27;5.40;;;2.05;;
27219;SDS011;45274;52.266;10.790;2023-08-21T03:48:58;3.85;;;2.00;;
27219;SDS011;45274;52.266;10.790;2023-08-21T03:51:23;2.80;;;2.22;;
27219;SDS011;45274;52.266;10.790;2023-08-21T03:53:49;6.20;;;2.38;;
27219;SDS011;45274;52.266;10.790;2023-08-21T03:56:18;4.38;;;2.10;;
27219;SDS011;45274;52.266;10.790;2023-08-21T03:58:44;4.47;;;2.10;;
27219;SDS011;45274;52.266;10.790;2023-08-21T04:01:09;6.25;;;2.67;;
27219;SDS011;45274;52.266;10.790;2023-08-21T04:03:35;6.15;;;2.28;;
27219;SDS011;45274;52.266;10.790;2023-08-21T04:06:01;5.78;;;2.13;;
27219;SDS011;45274;52.266;10.790;2023-08-21T04:08:26;4.22;;;2.30;;
27219;SDS011;45274;52.266;10.790;2023-08-21T04:10:52;4.00;;;2.35;;
27219;SDS011;45274;52.266;10.790;2023-08-21T04:13:24;5.28;;;2.22;;
27219;SDS011;45274;52.266;10.790;2023-08-21T04:15:49;6.60;;;2.30;;
27219;SDS011;45274;52.266;10.790;2023-08-21T04:18:16;5.80;;;2.22;;
27219;SDS011;45274;52.266;10.790;2023-08-21T04:20:41;3.90;;;2.13;;
27219;SDS011;45274;52.266;10.790;2023-08-21T04:23:06;8.63;;;2.40;;
27219;SDS011;45274;52.266;10.790;2023-08-21T04:25:32;7.25;;;2.80;;
27219;SDS011;45274;52.266;10.790;2023-08-21T04:27:57;6.72;;;2.92;;
27219;SDS011;45274;52.266;10.790;2023-08-21T04:30:23;6.82;;;2.60;;
27219;SDS011;45274;52.266;10.790;2023-08-21T04:32:49;3.80;;;2.17;;
27219;SDS011;45274;52.266;10.790;2023-08-21T04:35:14;15.02;;;2.28;;
27219;SDS011;45274;52.266;10.790;2023-08-21T04:37:43;4.25;;;2.33;;
27219;SDS011;45274;52.266;10.790;2023-08-21T04:40:11;3.80;;;2.30;;
27219;SDS011;45274;52.266;10.790;2023-08-21T04:42:36;5.03;;;2.50;;
27219;SDS011;45274;52.266;10.790;2023-08-21T04:45:02;4.85;;;2.05;;
27219;SDS011;45274;52.266;10.790;2023-08-21T04:47:29;4.82;;;2.60;;
27219;SDS011;45274;52.266;10.790;2023-08-21T04:49:54;7.10;;;2.75;;
27219;SDS011;45274;52.266;10.790;2023-08-21T04:52:24;5.47;;;2.10;;
27219;SDS011;45274;52.266;10.790;2023-08-21T04:54:50;6.72;;;2.55;;
27219;SDS011;45274;52.266;10.790;2023-08-21T04:57:16;6.15;;;3.10;;
27219;SDS011;45274;52.266;10.790;2023-08-21T04:59:46;7.85;;;2.70;;
27219;SDS011;45274;52.266;10.790;2023-08-21T05:02:12;7.53;;;2.90;;
27219;SDS011;45274;52.266;10.790;2023-08-21T05:04:43;6.78;;;3.25;;
27219;SDS011;45274;52.266;10.790;2023-08-21T05:07:08;5.72;;;3.30;;
27219;SDS011;45274;52.266;10.790;2023-08-21T05:09:34;6.65;;;3.30;;
27219;SDS011;45274;52.266;10.790;2023-08-21T05:12:02;9.77;;;4.28;;
27219;SDS011;45274;52.266;10.790;2023-08-21T05:14:33;6.30;;;4.03;;
27219;SDS011;45274;52.266;10.790;2023-08-21T05:17:10;9.27;;;4.38;;
27219;SDS011;45274;52.266;10.790;2023-08-21T05:19:38;8.98;;;4.57;;
27219;SDS011;45274;52.266;10.790;2023-08-21T05:22:06;9.27;;;5.03;;
27219;SDS011;45274;52.266;10.790;2023-08-21T05:24:32;7.55;;;4.90;;
27219;SDS011;45274;52.266;10.790;2023-08-21T05:26:59;9.57;;;5.68;;
27219;SDS011;45274;52.266;10.790;2023-08-21T05:29:25;7.57;;;4.82;;
27219;SDS011;45274;52.266;10.790;2023-08-21T05:31:55;7.38;;;5.03;;
27219;SDS011;45274;52.266;10.790;2023-08-21T05:34:21;8.48;;;5.20;;
27219;SDS011;45274;52.266;10.790;2023-08-21T05:36:50;11.25;;;5.40;;
27219;SDS011;45274;52.266;10.790;2023-08-21T05:39:19;8.63;;;4.63;;
27219;SDS011;45274;52.266;10.790;2023-08-21T05:41:45;10.63;;;5.43;;
27219;SDS011;45274;52.266;10.790;2023-08-21T05:44:10;7.57;;;5.40;;
27219;SDS011;45274;52.266;10.790;2023-08-21T05:46:36;7.75;;;5.53;;
27219;SDS011;45274;52.266;10.790;2023-08-21T05:49:03;11.13;;;5.63;;
27219;SDS011;45274;52.266;10.790;2023-08-21T05:51:29;10.05;;;5.95;;
27219;SDS011;45274;52.266;10.790;2023-08-21T05:53:54;9.93;;;5.75;;
27219;SDS011;45274;52.266;10.790;2023-08-21T05:56:21;10.45;;;5.53;;
27219;SDS011;45274;52.266;10.790;2023-08-21T05:58:56;9.85;;;5.28;;
27219;SDS011;45274;52.266;10.790;2023-08-21T06:01:21;10.05;;;5.10;;
27219;SDS011;45274;52.266;10.790;2023-08-21T06:03:47;9.15;;;4.95;;
27219;SDS011;45274;52.266;10.790;2023-08-21T06:06:12;10.43;;;5.25;;
27219;SDS011;45274;52.266;10.790;2023-08-21T06:08:40;8.43;;;4.72;;
27219;SDS011;45274;52.266;10.790;2023-08-21T06:11:05;9.90;;;4.45;;
27219;SDS011;45274;52.266;10.790;2023-08-21T06:13:31;9.45;;;4.10;;
27219;SDS011;45274;52.266;10.790;2023-08-21T06:15:56;9.40;;;4.10;;
27219;SDS011;45274;52.266;10.790;2023-08-21T06:18:22;8.10;;;4.22;;
27219;SDS011;45274;52.266;10.790;2023-08-21T06:20:48;9.75;;;4.68;;
27219;SDS011;45274;52.266;10.790;2023-08-21T06:23:18;8.68;;;4.50;;
27219;SDS011;45274;52.266;10.790;2023-08-21T06:25:49;8.63;;;5.20;;
27219;SDS011;45274;52.266;10.790;2023-08-21T06:28:34;9.43;;;4.75;;
27219;SDS011;45274;52.266;10.790;2023-08-21T06:31:00;11.95;;;4.95;;
27219;SDS011;45274;52.266;10.790;2023-08-21T06:33:37;10.18;;;4.60;;
27219;SDS011;45274;52.266;10.790;2023-08-21T06:36:19;8.95;;;4.68;;
27219;SDS011;45274;52.266;10.790;2023-08-21T07:30:54;6.40;;;2.00;;
27219;SDS011;45274;52.266;10.790;2023-08-21T07:39:37;3.58;;;1.60;;
27219;SDS011;45274;52.266;10.790;2023-08-21T08:02:31;5.38;;;1.50;;
27219;SDS011;45274;52.266;10.790;2023-08-21T08:05:42;6.32;;;1.92;;
27219;SDS011;45274;52.266;10.790;2023-08-21T08:08:37;5.55;;;1.50;;
27219;SDS011;45274;52.266;10.790;2023-08-21T08:11:10;5.90;;;1.50;;
27219;SDS011;45274;52.266;10.790;2023-08-21T08:20:31;7.03;;;2.10;;
27219;SDS011;45274;52.266;10.790;2023-08-21T08:23:09;5.97;;;2.10;;
27219;SDS011;45274;52.266;10.790;2023-08-21T08:25:52;5.88;;;1.65;;
27219;SDS011;45274;52.266;10.790;2023-08-21T08:28:55;5.40;;;1.50;;
27219;SDS011;45274;52.266;10.790;2023-08-21T08:32:01;3.03;;;1.45;;
27219;SDS011;45274;52.266;10.790;2023-08-21T08:34:44;3.58;;;1.40;;
27219;SDS011;45274;52.266;10.790;2023-08-21T08:37:28;5.25;;;1.58;;
27219;SDS011;45274;52.266;10.790;2023-08-21T08:56:08;8.05;;;2.05;;
27219;SDS011;45274;52.266;10.790;2023-08-21T09:45:58;6.75;;;1.90;;
27219;SDS011;45274;52.266;10.790;2023-08-21T09:58:11;4.78;;;1.63;;
27219;SDS011;45274;52.266;10.790;2023-08-21T10:07:52;7.47;;;1.50;;
27219;SDS011;45274;52.266;10.790;2023-08-21T10:11:01;5.78;;;1.45;;
27219;SDS011;45274;52.266;10.790;2023-08-21T13:19:33;6.57;;;1.20;;
27219;SDS011;45274;52.266;10.790;2023-08-21T15:57:51;8.27;;;1.27;;
27219;SDS011;45274;52.266;10.790;2023-08-21T16:00:16;5.20;;;1.00;;
27219;SDS011;45274;52.266;10.790;2023-08-21T16:02:42;9.90;;;1.55;;
27219;SDS011;45274;52.266;10.790;2023-08-21T16:05:10;4.10;;;1.30;;
27219;SDS011;45274;52.266;10.790;2023-08-21T16:07:38;7.38;;;1.50;;
27219;SDS011;45274;52.266;10.790;2023-08-21T16:12:54;5.80;;;1.20;;
27219;SDS011;45274;52.266;10.790;2023-08-21T16:15:20;4.63;;;1.40;;
27219;SDS011;45274;52.266;10.790;2023-08-21T16:17:51;8.05;;;1.33;;
27219;SDS011;45274;52.266;10.790;2023-08-21T16:20:24;6.88;;;1.35;;
27219;SDS011;45274;52.266;10.790;2023-08-21T16:23:11;6.32;;;1.40;;
27219;SDS011;45274;52.266;10.790;2023-08-21T16:29:02;4.03;;;1.10;;
27219;SDS011;45274;52.266;10.790;2023-08-21T16:31:30;8.15;;;1.55;;
27219;SDS011;45274;52.266;10.790;2023-08-21T16:33:59;4.13;;;1.35;;
27219;SDS011;45274;52.266;10.790;2023-08-21T16:36:24;7.38;;;1.33;;
27219;SDS011;45274;52.266;10.790;2023-08-21T16:38:55;4.38;;;1.23;;
27219;SDS011;45274;52.266;10.790;2023-08-21T16:41:20;3.53;;;1.10;;
27219;SDS011;45274;52.266;10.790;2023-08-21T16:44:03;3.40;;;1.20;;
27219;SDS011;45274;52.266;10.790;2023-08-21T16:46:32;5.03;;;1.33;;
27219;SDS011;45274;52.266;10.790;2023-08-21T16:49:00;6.72;;;1.33;;
27219;SDS011;45274;52.266;10.790;2023-08-21T16:51:30;4.22;;;1.48;;
27219;SDS011;45274;52.266;10.790;2023-08-21T16:53:56;4.18;;;1.50;;
27219;SDS011;45274;52.266;10.790;2023-08-21T16:56:24;2.00;;;1.05;;
27219;SDS011;45274;52.266;10.790;2023-08-21T16:58:53;3.67;;;1.00;;
27219;SDS011;45274;52.266;10.790;2023-08-21T17:01:19;3.10;;;1.00;;
27219;SDS011;45274;52.266;10.790;2023-08-21T17:03:45;7.68;;;1.13;;
27219;SDS011;45274;52.266;10.790;2023-08-21T17:06:11;10.23;;;1.42;;
27219;SDS011;45274;52.266;10.790;2023-08-21T17:08:39;5.65;;;1.30;;
27219;SDS011;45274;52.266;10.790;2023-08-21T17:11:04;2.78;;;1.23;;
27219;SDS011;45274;52.266;10.790;2023-08-21T17:13:30;4.18;;;1.20;;
27219;SDS011;45274;52.266;10.790;2023-08-21T17:15:56;6.50;;;1.20;;
27219;SDS011;45274;52.266;10.790;2023-08-21T17:31:28;3.50;;;0.93;;
27219;SDS011;45274;52.266;10.790;2023-08-21T17:34:20;4.70;;;1.35;;
27219;SDS011;45274;52.266;10.790;2023-08-21T17:37:46;4.93;;;1.00;;
27219;SDS011;45274;52.266;10.790;2023-08-21T17:50:34;3.45;;;1.10;;
27219;SDS011;45274;52.266;10.790;2023-08-21T18:19:26;9.85;;;1.35;;
27219;SDS011;45274;52.266;10.790;2023-08-21T18:21:57;3.65;;;1.30;;
27219;SDS011;45274;52.266;10.790;2023-08-21T18:24:26;6.78;;;1.10;;
27219;SDS011;45274;52.266;10.790;2023-08-21T18:26:53;5.22;;;1.05;;
27219;SDS011;45274;52.266;10.790;2023-08-21T18:29:22;6.40;;;1.30;;
27219;SDS011;45274;52.266;10.790;2023-08-21T18:31:59;9.95;;;1.40;;
27219;SDS011;45274;52.266;10.790;2023-08-21T18:35:06;7.78;;;1.33;;
27219;SDS011;45274;52.266;10.790;2023-08-21T18:38:15;11.65;;;1.35;;
27219;SDS011;45274;52.266;10.790;2023-08-21T18:41:06;3.15;;;1.42;;
27219;SDS011;45274;52.266;10.790;2023-08-21T18:43:49;7.45;;;1.30;;
27219;SDS011;45274;52.266;10.790;2023-08-21T18:50:08;6.53;;;1.25;;
27219;SDS011;45274;52.266;10.790;2023-08-21T18:52:34;8.98;;;1.80;;
27219;SDS011;45274;52.266;10.790;2023-08-21T18:55:04;6.43;;;1.70;;
27219;SDS011;45274;52.266;10.790;2023-08-21T18:57:36;11.43;;;1.95;;
27219;SDS011;45274;52.266;10.790;2023-08-21T19:02:34;6.65;;;1.67;;
27219;SDS011;45274;52.266;10.790;2023-08-21T19:05:05;8.80;;;1.80;;
27219;SDS011;45274;52.266;10.790;2023-08-21T19:07:37;11.65;;;1.73;;
27219;SDS011;45274;52.266;10.790;2023-08-21T19:10:06;6.57;;;1.40;;
27219;SDS011;45274;52.266;10.790;2023-08-21T19:12:32;7.00;;;1.80;;
27219;SDS011;45274;52.266;10.790;2023-08-21T19:15:08;7.78;;;1.60;;
27219;SDS011;45274;52.266;10.790;2023-08-21T19:17:39;9.13;;;1.77;;
27219;SDS011;45274;52.266;10.790;2023-08-21T19:20:06;6.82;;;1.50;;
27219;SDS011;45274;52.266;10.790;2023-08-21T19:22:37;9.75;;;2.05;;
27219;SDS011;45274;52.266;10.790;2023-08-21T19:25:05;3.92;;;1.48;;
27219;SDS011;45274;52.266;10.790;2023-08-21T19:27:31;5.50;;;1.50;;
27219;SDS011;45274;52.266;10.790;2023-08-21T19:30:05;5.93;;;1.30;;
27219;SDS011;45274;52.266;10.790;2023-08-21T19:32:31;7.30;;;1.27;;
27219;SDS011;45274;52.266;10.790;2023-08-21T19:35:03;3.75;;;1.45;;
27219;SDS011;45274;52.266;10.790;2023-08-21T19:37:34;4.55;;;1.33;;
27219;SDS011;45274;52.266;10.790;2023-08-21T19:40:00;5.47;;;1.67;;
27219;SDS011;45274;52.266;10.790;2023-08-21T19:42:28;5.40;;;1.45;;
27219;SDS011;45274;52.266;10.790;2023-08-21T19:45:03;2.85;;;1.02;;
27219;SDS011;45274;52.266;10.790;2023-08-21T19:47:32;4.20;;;1.33;;
27219;SDS011;45274;52.266;10.790;2023-08-21T19:52:52;6.63;;;1.52;;
27219;SDS011;45274;52.266;10.790;2023-08-21T19:55:26;5.22;;;1.35;;
27219;SDS011;45274;52.266;10.790;2023-08-21T19:57:52;5.90;;;1.30;;
27219;SDS011;45274;52.266;10.790;2023-08-21T20:00:20;3.88;;;1.48;;
27219;SDS011;45274;52.266;10.790;2023-08-21T20:02:48;5.10;;;1.70;;
27219;SDS011;45274;52.266;10.790;2023-08-21T20:05:20;3.88;;;1.42;;
27219;SDS011;45274;52.266;10.790;2023-08-21T20:07:45;2.75;;;1.10;;
27219;SDS011;45274;52.266;10.790;2023-08-21T20:10:14;5.30;;;1.30;;
27219;SDS011;45274;52.266;10.790;2023-08-21T20:12:42;5.28;;;1.48;;
27219;SDS011;45274;52.266;10.790;2023-08-21T20:15:21;3.17;;;1.20;;
27219;SDS011;45274;52.266;10.790;2023-08-21T20:17:50;8.47;;;1.83;;
27219;SDS011;45274;52.266;10.790;2023-08-21T20:20:35;8.35;;;1.40;;
27219;SDS011;45274;52.266;10.790;2023-08-21T20:23:01;3.58;;;1.42;;
27219;SDS011;45274;52.266;10.790;2023-08-21T20:25:29;5.97;;;1.48;;
27219;SDS011;45274;52.266;10.790;2023-08-21T20:27:54;4.40;;;1.23;;
27219;SDS011;45274;52.266;10.790;2023-08-21T20:30:20;13.95;;;1.30;;
27219;SDS011;45274;52.266;10.790;2023-08-21T20:32:45;2.85;;;1.10;;
27219;SDS011;45274;52.266;10.790;2023-08-21T20:35:11;5.20;;;1.33;;
27219;SDS011;45274;52.266;10.790;2023-08-21T20:37:39;4.13;;;1.25;;
27219;SDS011;45274;52.266;10.790;2023-08-21T20:40:08;4.70;;;1.45;;
27219;SDS011;45274;52.266;10.790;2023-08-21T20:42:38;4.55;;;1.70;;
27219;SDS011;45274;52.266;10.790;2023-08-21T20:45:09;2.53;;;0.90;;
27219;SDS011;45274;52.266;10.790;2023-08-21T20:47:35;6.10;;;1.40;;
27219;SDS011;45274;52.266;10.790;2023-08-21T20:50:02;4.13;;;1.48;;
27219;SDS011;45274;52.266;10.790;2023-08-21T20:52:28;4.03;;;1.33;;
27219;SDS011;45274;52.266;10.790;2023-08-21T20:54:54;5.32;;;1.45;;
27219;SDS011;45274;52.266;10.790;2023-08-21T20:57:20;3.40;;;1.40;;
27219;SDS011;45274;52.266;10.790;2023-08-21T20:59:48;8.10;;;1.48;;
27219;SDS011;45274;52.266;10.790;2023-08-21T21:02:14;7.00;;;1.30;;
27219;SDS011;45274;52.266;10.790;2023-08-21T21:04:39;6.38;;;1.17;;
27219;SDS011;45274;52.266;10.790;2023-08-21T21:07:05;9.05;;;1.50;;
27219;SDS011;45274;52.266;10.790;2023-08-21T21:09:31;11.93;;;1.33;;
27219;SDS011;45274;52.266;10.790;2023-08-21T21:12:02;2.83;;;1.20;;
27219;SDS011;45274;52.266;10.790;2023-08-21T21:14:28;4.78;;;1.25;;
27219;SDS011;45274;52.266;10.790;2023-08-21T21:16:54;7.53;;;1.40;;
27219;SDS011;45274;52.266;10.790;2023-08-21T21:19:20;6.65;;;1.20;;
27219;SDS011;45274;52.266;10.790;2023-08-21T21:21:45;4.88;;;1.05;;
27219;SDS011;45274;52.266;10.790;2023-08-21T21:24:20;7.20;;;1.55;;
27219;SDS011;45274;52.266;10.790;2023-08-21T21:26:59;8.38;;;1.52;;
27219;SDS011;45274;52.266;10.790;2023-08-21T21:29:27;4.32;;;1.40;;
27219;SDS011;45274;52.266;10.790;2023-08-21T21:31:52;9.93;;;2.38;;
27219;SDS011;45274;52.266;10.790;2023-08-21T21:34:18;3.08;;;1.10;;
27219;SDS011;45274;52.266;10.790;2023-08-21T21:36:43;12.50;;;1.45;;
27219;SDS011;45274;52.266;10.790;2023-08-21T21:39:09;7.70;;;1.42;;
27219;SDS011;45274;52.266;10.790;2023-08-21T21:41:35;9.00;;;1.20;;
27219;SDS011;45274;52.266;10.790;2023-08-21T21:44:10;4.93;;;1.45;;
27219;SDS011;45274;52.266;10.790;2023-08-21T21:46:44;8.23;;;1.48;;
27219;SDS011;45274;52.266;10.790;2023-08-21T21:49:19;4.22;;;1.35;;
27219;SDS011;45274;52.266;10.790;2023-08-21T21:51:44;11.23;;;1.40;;
27219;SDS011;45274;52.266;10.790;2023-08-21T21:54:10;16.27;;;2.47;;
27219;SDS011;45274;52.266;10.790;2023-08-21T21:56:36;11.65;;;2.15;;
27219;SDS011;45274;52.266;10.790;2023-08-21T21:59:04;18.75;;;2.05;;
27219;SDS011;45274;52.266;10.790;2023-08-21T22:01:30;13.90;;;1.92;;
27219;SDS011;45274;52.266;10.790;2023-08-21T22:03:55;32.38;;;3.17;;
27219;SDS011;45274;52.266;10.790;2023-08-21T22:06:21;36.83;;;3.55;;
27219;SDS011;45274;52.266;10.790;2023-08-21T22:08:46;25.55;;;2.35;;
27219;SDS011;45274;52.266;10.790;2023-08-21T22:11:15;13.90;;;2.17;;
27219;SDS011;45274;52.266;10.790;2023-08-21T22:13:42;6.30;;;1.83;;
27219;SDS011;45274;52.266;10.790;2023-08-21T22:16:08;5.82;;;1.42;;
27219;SDS011;45274;52.266;10.790;2023-08-21T22:18:34;7.75;;;1.52;;
27219;SDS011;45274;52.266;10.790;2023-08-21T22:21:03;6.32;;;1.30;;
27219;SDS011;45274;52.266;10.790;2023-08-21T22:23:31;7.88;;;1.63;;
27219;SDS011;45274;52.266;10.790;2023-08-21T22:25:57;8.13;;;1.40;;
27219;SDS011;45274;52.266;10.790;2023-08-21T22:28:22;6.88;;;1.77;;
27219;SDS011;45274;52.266;10.790;2023-08-21T22:30:48;5.85;;;1.20;;
27219;SDS011;45274;52.266;10.790;2023-08-21T22:33:13;4.18;;;1.90;;
27219;SDS011;45274;52.266;10.790;2023-08-21T22:35:39;7.43;;;1.50;;
27219;SDS011;45274;52.266;10.790;2023-08-21T22:38:04;8.55;;;1.70;;
27219;SDS011;45274;52.266;10.790;2023-08-21T22:40:30;6.00;;;1.85;;
27219;SDS011;45274;52.266;10.790;2023-08-21T22:42:55;3.50;;;1.30;;
27219;SDS011;45274;52.266;10.790;2023-08-21T22:45:21;5.15;;;1.63;;
27219;SDS011;45274;52.266;10.790;2023-08-21T22:47:47;3.00;;;1.38;;
27219;SDS011;45274;52.266;10.790;2023-08-21T22:50:12;4.78;;;1.63;;
27219;SDS011;45274;52.266;10.790;2023-08-21T22:52:38;3.95;;;1.50;;
27219;SDS011;45274;52.266;10.790;2023-08-21T22:55:03;5.05;;;1.42;;
27219;SDS011;45274;52.266;10.790;2023-08-21T22:57:29;6.03;;;1.85;;
27219;SDS011;45274;52.266;10.790;2023-08-21T22:59:55;5.38;;;1.67;;
27219;SDS011;45274;52.266;10.790;2023-08-21T23:02:25;5.63;;;1.67;;
27219;SDS011;45274;52.266;10.790;2023-08-21T23:04:57;5.20;;;1.70;;
27219;SDS011;45274;52.266;10.790;2023-08-21T23:07:22;6.22;;;1.70;;
27219;SDS011;45274;52.266;10.790;2023-08-21T23:09:48;4.47;;;1.23;;
27219;SDS011;45274;52.266;10.790;2023-08-21T23:12:18;4.85;;;1.50;;
27219;SDS011;45274;52.266;10.790;2023-08-21T23:14:44;4.78;;;1.20;;
27219;SDS011;45274;52.266;10.790;2023-08-21T23:17:09;7.10;;;1.80;;
27219;SDS011;45274;52.266;10.790;2023-08-21T23:19:35;5.03;;;1.42;;
27219;SDS011;45274;52.266;10.790;2023-08-21T23:22:00;3.08;;;1.10;;
27219;SDS011;45274;52.266;10.790;2023-08-21T23:24:29;3.92;;;1.40;;
27219;SDS011;45274;52.266;10.790;2023-08-21T23:26:54;5.60;;;1.30;;
27219;SDS011;45274;52.266;10.790;2023-08-21T23:29:20;3.67;;;1.10;;
27219;SDS011;45274;52.266;10.790;2023-08-21T23:31:45;5.78;;;1.48;;
27219;SDS011;45274;52.266;10.790;2023-08-21T23:34:11;3.38;;;1.38;;
27219;SDS011;45274;52.266;10.790;2023-08-21T23:36:37;2.00;;;0.90;;
27219;SDS011;45274;52.266;10.790;2023-08-21T23:39:03;3.25;;;1.20;;
27219;SDS011;45274;52.266;10.790;2023-08-21T23:41:33;3.90;;;1.10;;
27219;SDS011;45274;52.266;10.790;2023-08-21T23:43:59;6.70;;;1.42;;
27219;SDS011;45274;52.266;10.790;2023-08-21T23:46:24;7.85;;;2.00;;
27219;SDS011;45274;52.266;10.790;2023-08-21T23:48:50;2.95;;;1.67;;
27219;SDS011;45274;52.266;10.790;2023-08-21T23:51:15;4.25;;;1.17;;
27219;SDS011;45274;52.266;10.790;2023-08-21T23:53:43;4.45;;;1.30;;
27219;SDS011;45274;52.266;10.790;2023-08-21T23:56:09;8.07;;;1.85;;
27219;SDS011;45274;52.266;10.790;2023-08-21T23:58:36;9.00;;;1.48;;
